Time;durP1;ratioP1;P1;durP2;ratioP2;P2;SDS_P1;SDS_P2;PMS_P1;PMS_P2;Temp;Humidity;BMP_temperature;BMP_pressure;BME280_temperature;BME280_humidity;BME280_pressure;Samples;Min_cycle;Max_cycle;Signal;HPM_P1;HPM_P2
2021/06/22 00:00:17;;;;;;;13.20;7.85;;;10.10;99.90;;;;;;4999028;28;20042;-92
2021/06/22 00:02:45;;;;;;;17.30;8.68;;;10.00;99.90;;;;;;4987736;28;20003;-91
2021/06/22 00:05:11;;;;;;;13.68;7.78;;;10.00;99.90;;;;;;4989482;28;20031;-92
2021/06/22 00:07:37;;;;;;;14.85;8.45;;;9.90;99.90;;;;;;4993196;28;20038;-92
2021/06/22 00:10:06;;;;;;;13.63;8.18;;;9.90;99.90;;;;;;4986749;28;20062;-92
2021/06/22 00:12:32;;;;;;;14.93;8.57;;;9.90;99.90;;;;;;5010557;28;20038;-92
2021/06/22 00:14:58;;;;;;;15.00;8.82;;;9.80;99.90;;;;;;4987907;28;20046;-91
2021/06/22 00:17:26;;;;;;;13.32;8.70;;;9.80;99.90;;;;;;5011828;28;20022;-92
2021/06/22 00:19:52;;;;;;;14.95;8.50;;;9.70;99.90;;;;;;4990096;28;20041;-92
2021/06/22 00:22:18;;;;;;;15.15;8.25;;;9.70;99.90;;;;;;4976405;28;20026;-92
2021/06/22 00:24:45;;;;;;;16.35;9.13;;;9.70;99.90;;;;;;4996741;28;20034;-92
2021/06/22 00:27:12;;;;;;;16.52;9.80;;;9.70;99.90;;;;;;4993325;28;20045;-91
2021/06/22 00:29:48;;;;;;;16.25;9.07;;;9.60;99.90;;;;;;5008160;28;20011;-91
2021/06/22 00:32:17;;;;;;;26.33;10.32;;;9.60;99.90;;;;;;4988867;28;20027;-92
2021/06/22 00:34:44;;;;;;;19.08;9.63;;;9.60;99.90;;;;;;4990192;28;20027;-91
2021/06/22 00:37:14;;;;;;;18.45;8.90;;;9.60;99.90;;;;;;4988528;28;20027;-92
2021/06/22 00:39:40;;;;;;;17.70;9.63;;;9.50;99.90;;;;;;4982227;28;20042;-92
2021/06/22 00:42:10;;;;;;;19.63;10.15;;;9.50;99.90;;;;;;4982295;28;20026;-91
2021/06/22 00:44:52;;;;;;;15.45;9.27;;;9.50;99.90;;;;;;4976098;28;20026;-91
2021/06/22 00:47:21;;;;;;;18.98;9.77;;;9.50;99.90;;;;;;4978832;28;20051;-92
2021/06/22 00:49:50;;;;;;;16.98;10.65;;;9.50;99.90;;;;;;4980090;28;20021;-91
2021/06/22 00:52:23;;;;;;;23.02;9.88;;;9.40;99.90;;;;;;4982758;28;20026;-92
2021/06/22 00:54:50;;;;;;;17.58;9.43;;;9.40;99.90;;;;;;4985513;28;20033;-91
2021/06/22 00:57:18;;;;;;;17.90;10.18;;;9.40;99.90;;;;;;4984507;28;20023;-92
2021/06/22 00:59:49;;;;;;;20.30;9.70;;;9.30;99.90;;;;;;4982774;28;20018;-92
2021/06/22 01:02:17;;;;;;;20.05;10.27;;;9.30;99.90;;;;;;4977126;28;20022;-93
2021/06/22 01:04:44;;;;;;;20.35;9.60;;;9.20;99.90;;;;;;4946392;28;20102;-93
2021/06/22 01:07:16;;;;;;;17.13;9.07;;;9.20;99.90;;;;;;4976328;28;20035;-93
2021/06/22 01:09:42;;;;;;;17.20;9.73;;;9.20;99.90;;;;;;4980443;28;20093;-93
2021/06/22 01:12:08;;;;;;;19.42;10.88;;;9.20;99.90;;;;;;4989371;28;20026;-93
2021/06/22 01:14:39;;;;;;;21.17;9.57;;;9.20;99.90;;;;;;4985436;28;20030;-92
2021/06/22 01:17:05;;;;;;;18.33;9.88;;;9.10;99.90;;;;;;4979694;28;20097;-93
2021/06/22 01:19:32;;;;;;;16.55;10.32;;;9.10;99.90;;;;;;4984901;28;20021;-92
2021/06/22 01:21:59;;;;;;;22.20;9.52;;;9.10;99.90;;;;;;4981231;28;20114;-93
2021/06/22 01:24:26;;;;;;;19.48;10.68;;;9.10;99.90;;;;;;4992147;28;20030;-91
2021/06/22 01:26:55;;;;;;;20.40;11.35;;;9.10;99.90;;;;;;4970581;28;20062;-93
2021/06/22 01:29:22;;;;;;;19.60;10.65;;;9.10;99.90;;;;;;4980920;28;20025;-92
2021/06/22 01:31:52;;;;;;;21.05;9.48;;;9.00;99.90;;;;;;4982657;28;20065;-90
2021/06/22 01:34:27;;;;;;;17.98;10.70;;;9.00;99.90;;;;;;4974203;28;20089;-91
2021/06/22 01:36:54;;;;;;;21.38;10.52;;;9.00;99.90;;;;;;4979143;28;20026;-91
2021/06/22 01:39:20;;;;;;;19.98;10.30;;;9.00;99.90;;;;;;5005476;28;20027;-92
2021/06/22 01:41:46;;;;;;;22.83;10.82;;;9.00;99.90;;;;;;4984799;28;20033;-91
2021/06/22 01:44:12;;;;;;;19.80;10.32;;;8.90;99.90;;;;;;4986354;28;20030;-93
2021/06/22 01:46:39;;;;;;;21.77;10.77;;;8.90;99.90;;;;;;5006015;28;20039;-92
2021/06/22 01:49:07;;;;;;;17.77;9.98;;;8.90;99.90;;;;;;5003877;28;20377;-92
2021/06/22 01:51:34;;;;;;;18.10;10.75;;;8.90;99.90;;;;;;4981992;28;20023;-93
2021/06/22 01:54:01;;;;;;;26.00;11.18;;;8.90;99.90;;;;;;5004264;28;20038;-93
2021/06/22 01:56:28;;;;;;;16.83;10.35;;;8.90;99.90;;;;;;4988990;28;20033;-92
2021/06/22 01:58:54;;;;;;;22.80;11.25;;;8.90;99.90;;;;;;4982320;28;20064;-93
2021/06/22 02:01:21;;;;;;;20.00;10.65;;;8.80;99.90;;;;;;4988275;28;20042;-92
2021/06/22 02:03:48;;;;;;;16.73;10.23;;;8.80;99.90;;;;;;4986648;28;20013;-91
2021/06/22 02:06:14;;;;;;;19.40;10.90;;;8.80;99.90;;;;;;4986451;28;20042;-93
2021/06/22 02:08:41;;;;;;;22.13;10.77;;;8.80;99.90;;;;;;4991890;28;20061;-92
2021/06/22 02:11:07;;;;;;;21.55;11.02;;;8.80;99.90;;;;;;4987059;28;20049;-91
2021/06/22 02:13:34;;;;;;;19.27;10.35;;;8.80;99.90;;;;;;4981564;28;20102;-92
2021/06/22 02:16:04;;;;;;;22.60;10.95;;;8.80;99.90;;;;;;4961951;28;20484;-93
2021/06/22 02:18:30;;;;;;;19.65;11.60;;;8.80;99.90;;;;;;4994243;28;20023;-92
2021/06/22 02:20:57;;;;;;;18.23;10.90;;;8.80;99.90;;;;;;4977488;28;20022;-92
2021/06/22 02:23:26;;;;;;;21.00;10.82;;;8.80;99.90;;;;;;4973159;28;20018;-93
2021/06/22 02:25:52;;;;;;;21.88;9.98;;;8.80;99.90;;;;;;4992476;28;20126;-92
2021/06/22 02:28:22;;;;;;;18.92;10.48;;;8.80;99.90;;;;;;4973923;28;20051;-92
2021/06/22 02:30:53;;;;;;;18.27;10.52;;;8.80;99.90;;;;;;4993848;28;20033;-92
2021/06/22 02:33:20;;;;;;;21.75;10.90;;;8.80;99.90;;;;;;4976679;28;20031;-93
2021/06/22 02:35:46;;;;;;;22.17;11.45;;;8.80;99.90;;;;;;4981966;28;20193;-92
2021/06/22 02:38:13;;;;;;;22.25;10.38;;;8.80;99.90;;;;;;4977620;28;20034;-94
2021/06/22 02:40:39;;;;;;;27.55;11.05;;;8.80;99.90;;;;;;4976264;28;20085;-93
2021/06/22 02:43:06;;;;;;;20.08;11.23;;;8.70;99.90;;;;;;4975934;28;20026;-95
2021/06/22 02:45:34;;;;;;;21.45;11.45;;;8.70;99.90;;;;;;4975381;28;20042;-92
2021/06/22 02:48:01;;;;;;;20.88;11.55;;;8.70;99.90;;;;;;4978642;28;20049;-92
2021/06/22 02:50:29;;;;;;;18.52;10.40;;;8.70;99.90;;;;;;4971830;28;20069;-93
2021/06/22 02:52:55;;;;;;;20.70;11.10;;;8.80;99.90;;;;;;4976771;28;20045;-93
2021/06/22 02:55:21;;;;;;;17.23;11.25;;;8.70;99.90;;;;;;4974606;28;20090;-92
2021/06/22 02:57:47;;;;;;;15.52;10.73;;;8.70;99.90;;;;;;4999645;28;20050;-92
2021/06/22 03:00:15;;;;;;;16.60;10.63;;;8.80;99.90;;;;;;5000719;28;20554;-93
2021/06/22 03:02:41;;;;;;;19.48;11.85;;;8.70;99.90;;;;;;4975628;28;20114;-93
2021/06/22 03:05:08;;;;;;;21.42;10.60;;;8.70;99.90;;;;;;4974924;28;20114;-91
2021/06/22 03:07:34;;;;;;;24.73;10.85;;;8.70;99.90;;;;;;4973598;28;20050;-93
2021/06/22 03:10:01;;;;;;;18.83;11.35;;;8.70;99.90;;;;;;4955850;28;20514;-92
2021/06/22 03:12:29;;;;;;;18.35;10.68;;;8.70;99.90;;;;;;4964418;28;20031;-92
2021/06/22 03:14:56;;;;;;;19.02;10.85;;;8.70;99.90;;;;;;4968693;28;20059;-92
2021/06/22 03:17:22;;;;;;;21.95;11.52;;;8.70;99.90;;;;;;4969215;28;20206;-91
2021/06/22 03:19:47;;;;;;;19.98;11.52;;;8.70;99.90;;;;;;4973181;28;20050;-92
2021/06/22 03:22:13;;;;;;;19.13;10.85;;;8.70;99.90;;;;;;4976601;28;20019;-92
2021/06/22 03:24:38;;;;;;;23.38;11.20;;;8.70;99.90;;;;;;4974372;28;20031;-91
2021/06/22 03:27:07;;;;;;;24.13;10.75;;;8.70;99.90;;;;;;4972466;28;20039;-92
2021/06/22 03:29:35;;;;;;;19.00;10.95;;;8.70;99.90;;;;;;4967845;28;20031;-93
2021/06/22 03:32:03;;;;;;;21.90;10.88;;;8.70;99.90;;;;;;4975904;28;20113;-90
2021/06/22 03:34:28;;;;;;;20.13;10.60;;;8.70;99.90;;;;;;4967137;28;20026;-91
2021/06/22 03:36:54;;;;;;;19.13;10.57;;;8.70;99.90;;;;;;4979968;28;20030;-91
2021/06/22 03:39:21;;;;;;;18.60;10.55;;;8.70;99.90;;;;;;4981889;28;20085;-91
2021/06/22 03:41:47;;;;;;;17.85;9.25;;;8.70;99.90;;;;;;4969263;28;20023;-93
2021/06/22 03:44:13;;;;;;;19.48;10.95;;;8.70;99.90;;;;;;4989648;28;20027;-91
2021/06/22 03:46:42;;;;;;;23.38;9.82;;;8.70;99.90;;;;;;4988053;28;20086;-92
2021/06/22 03:49:10;;;;;;;19.40;11.25;;;8.70;99.90;;;;;;4987710;28;20042;-92
2021/06/22 03:51:38;;;;;;;18.77;10.13;;;8.70;99.90;;;;;;4993217;28;20012;-92
2021/06/22 03:54:08;;;;;;;20.50;10.68;;;8.70;99.90;;;;;;4995563;28;20042;-92
2021/06/22 03:56:33;;;;;;;20.40;10.65;;;8.70;99.90;;;;;;4979342;28;20091;-91
2021/06/22 03:58:59;;;;;;;20.98;11.15;;;8.70;99.90;;;;;;4972584;28;20091;-91
2021/06/22 04:01:28;;;;;;;20.95;10.77;;;8.70;99.90;;;;;;4968772;28;20052;-91
2021/06/22 04:03:55;;;;;;;19.65;9.90;;;8.70;99.90;;;;;;4976189;28;20022;-92
2021/06/22 04:06:21;;;;;;;16.02;9.73;;;8.60;99.90;;;;;;4979697;28;20071;-92
2021/06/22 04:08:46;;;;;;;19.08;10.90;;;8.70;99.90;;;;;;4987717;28;20012;-93
2021/06/22 04:11:13;;;;;;;18.40;9.65;;;8.70;99.90;;;;;;4983470;28;20022;-91
2021/06/22 04:13:39;;;;;;;18.55;9.75;;;8.70;99.90;;;;;;4986322;28;20033;-92
2021/06/22 04:16:05;;;;;;;19.02;9.75;;;8.70;99.90;;;;;;4979656;28;20124;-92
2021/06/22 04:18:32;;;;;;;19.05;10.23;;;8.70;99.90;;;;;;4983337;28;20563;-92
2021/06/22 04:21:03;;;;;;;17.80;9.80;;;8.60;99.90;;;;;;4997341;28;20034;-91
2021/06/22 04:23:29;;;;;;;19.85;9.70;;;8.60;99.90;;;;;;4984583;28;20036;-93
2021/06/22 04:25:55;;;;;;;17.65;8.88;;;8.70;99.90;;;;;;4987064;28;20050;-91
2021/06/22 04:28:21;;;;;;;17.73;8.93;;;8.70;99.90;;;;;;4978443;28;20034;-92
2021/06/22 04:30:47;;;;;;;15.43;9.85;;;8.60;99.90;;;;;;4978740;28;20026;-91
2021/06/22 04:33:14;;;;;;;17.77;9.68;;;8.70;99.90;;;;;;4970739;28;20073;-91
2021/06/22 04:35:40;;;;;;;18.15;9.38;;;8.70;99.90;;;;;;4973455;28;20035;-92
2021/06/22 04:38:07;;;;;;;20.33;10.23;;;8.70;99.90;;;;;;4976261;28;20041;-91
2021/06/22 04:40:35;;;;;;;16.88;9.73;;;8.70;99.90;;;;;;4976270;28;20440;-92
2021/06/22 04:43:02;;;;;;;18.30;9.02;;;8.70;99.90;;;;;;4975956;28;20102;-92
2021/06/22 04:45:29;;;;;;;15.57;8.93;;;8.70;99.90;;;;;;4976111;28;20033;-92
2021/06/22 04:47:56;;;;;;;18.20;9.57;;;8.70;99.90;;;;;;4971914;28;20030;-92
2021/06/22 04:50:23;;;;;;;16.38;8.15;;;8.70;99.90;;;;;;4969853;28;20025;-92
2021/06/22 04:52:51;;;;;;;21.30;8.90;;;8.80;99.90;;;;;;4967988;28;20073;-91
2021/06/22 04:55:21;;;;;;;14.75;7.38;;;8.80;99.90;;;;;;4984168;28;20082;-91
2021/06/22 04:57:47;;;;;;;17.35;8.52;;;8.80;99.90;;;;;;4968235;28;20031;-91
2021/06/22 05:00:14;;;;;;;15.95;9.02;;;8.80;99.90;;;;;;4970029;28;20559;-91
2021/06/22 05:02:44;;;;;;;18.88;8.13;;;8.90;99.90;;;;;;4968211;28;20038;-92
2021/06/22 05:05:11;;;;;;;18.85;8.18;;;8.90;99.90;;;;;;4980121;28;20134;-91
2021/06/22 05:07:40;;;;;;;15.82;8.00;;;8.90;99.90;;;;;;4985836;28;20057;-90
2021/06/22 05:10:08;;;;;;;17.00;8.98;;;9.00;99.90;;;;;;4980145;28;20051;-91
2021/06/22 05:12:34;;;;;;;18.67;8.20;;;9.00;99.90;;;;;;4975292;28;20110;-91
2021/06/22 05:15:01;;;;;;;13.20;8.65;;;9.10;99.90;;;;;;4992983;28;20023;-90
2021/06/22 05:17:27;;;;;;;15.75;8.60;;;9.10;99.90;;;;;;4972114;28;20511;-91
2021/06/22 05:19:55;;;;;;;20.00;8.10;;;9.20;99.90;;;;;;4971315;28;20022;-91
2021/06/22 05:22:23;;;;;;;14.90;8.30;;;9.20;99.90;;;;;;4968392;28;20026;-92
2021/06/22 05:24:49;;;;;;;14.07;7.40;;;9.20;99.90;;;;;;4970025;28;20539;-92
2021/06/22 05:27:15;;;;;;;19.25;8.05;;;9.30;99.90;;;;;;4968647;28;20031;-91
2021/06/22 05:29:42;;;;;;;12.23;7.47;;;9.30;99.90;;;;;;4968047;28;20073;-93
2021/06/22 05:32:08;;;;;;;16.00;8.15;;;9.40;99.90;;;;;;4968006;28;20106;-92
2021/06/22 05:34:35;;;;;;;15.43;7.78;;;9.40;99.90;;;;;;4997822;28;20081;-90
2021/06/22 05:37:03;;;;;;;16.65;8.43;;;9.50;99.90;;;;;;4975494;28;20085;-91
2021/06/22 05:39:28;;;;;;;14.00;7.80;;;9.50;99.90;;;;;;4990233;28;20046;-90
2021/06/22 05:41:54;;;;;;;15.10;7.90;;;9.50;99.90;;;;;;4970989;28;20019;-91
2021/06/22 05:44:20;;;;;;;15.48;6.88;;;9.60;99.90;;;;;;4985690;28;20464;-90
2021/06/22 05:46:45;;;;;;;13.02;6.53;;;9.60;99.90;;;;;;4972369;28;20632;-91
2021/06/22 05:49:15;;;;;;;13.10;6.82;;;9.60;99.90;;;;;;4974611;28;20033;-91
2021/06/22 05:51:45;;;;;;;18.42;7.35;;;9.60;99.90;;;;;;4999455;28;20034;-90
2021/06/22 05:54:11;;;;;;;12.67;6.57;;;9.60;99.90;;;;;;4977076;28;20061;-93
2021/06/22 05:56:37;;;;;;;18.85;6.45;;;9.70;99.90;;;;;;4975341;28;20027;-90
2021/06/22 05:59:05;;;;;;;15.60;6.80;;;9.80;99.90;;;;;;4984133;28;20038;-92
2021/06/22 06:03:58;;;;;;;9.40;4.88;;;9.90;99.90;;;;;;4989479;28;20070;-95
2021/06/22 06:08:49;;;;;;;12.27;5.90;;;10.00;99.90;;;;;;4984962;23;20697;-95
2021/06/22 06:11:15;;;;;;;11.77;5.68;;;10.10;99.90;;;;;;4990654;28;20095;-94
2021/06/22 06:13:43;;;;;;;14.65;6.07;;;10.10;99.90;;;;;;4987652;28;20104;-95
2021/06/22 06:16:09;;;;;;;13.45;5.68;;;10.20;99.90;;;;;;4988668;28;20511;-94
2021/06/22 06:18:35;;;;;;;12.45;6.07;;;10.30;99.90;;;;;;5007079;28;20030;-96
2021/06/22 06:21:01;;;;;;;15.05;5.70;;;10.30;99.90;;;;;;5011437;28;20029;-94
2021/06/22 06:23:47;;;;;;;16.50;6.05;;;10.30;99.90;;;;;;5005253;28;20022;-94
2021/06/22 06:26:15;;;;;;;13.90;6.05;;;10.30;99.90;;;;;;5020658;28;20042;-95
2021/06/22 06:28:51;;;;;;;12.48;6.18;;;10.40;99.90;;;;;;5016328;28;20018;-94
2021/06/22 06:31:17;;;;;;;13.77;5.45;;;10.50;99.90;;;;;;4997005;28;20033;-94
2021/06/22 06:33:43;;;;;;;15.48;6.25;;;10.50;99.90;;;;;;5000163;28;20018;-95
2021/06/22 06:36:09;;;;;;;14.07;6.22;;;10.50;99.90;;;;;;5023394;28;20040;-95
2021/06/22 06:38:38;;;;;;;10.95;6.38;;;10.50;99.90;;;;;;5002171;28;20022;-95
2021/06/22 06:46:13;;;;;;;15.40;6.30;;;10.70;99.90;;;;;;5009191;28;20042;-92
2021/06/22 06:48:40;;;;;;;14.02;7.38;;;10.70;99.90;;;;;;5000006;28;20026;-90
2021/06/22 06:51:09;;;;;;;16.40;7.07;;;10.80;99.90;;;;;;5001296;28;20037;-91
2021/06/22 06:53:35;;;;;;;18.67;7.03;;;10.90;99.90;;;;;;5001110;28;20025;-92
2021/06/22 06:56:01;;;;;;;11.77;6.75;;;11.00;99.90;;;;;;5001203;28;20029;-91
2021/06/22 06:58:27;;;;;;;13.68;6.68;;;11.20;99.90;;;;;;5001251;28;20025;-90
2021/06/22 07:03:50;;;;;;;12.93;7.15;;;11.30;99.90;;;;;;5238638;23;20057;-91
2021/06/22 07:06:16;;;;;;;13.10;6.35;;;11.40;99.90;;;;;;5029952;28;20040;-91
2021/06/22 07:08:41;;;;;;;12.65;6.80;;;11.50;99.90;;;;;;5019384;28;20056;-91
2021/06/22 07:11:08;;;;;;;15.30;7.07;;;11.60;99.90;;;;;;5019003;28;20017;-91
2021/06/22 07:13:33;;;;;;;13.70;6.70;;;11.70;99.90;;;;;;5012104;28;20018;-90
2021/06/22 07:15:59;;;;;;;13.70;6.07;;;11.80;99.90;;;;;;5012087;28;20106;-91
2021/06/22 07:18:29;;;;;;;13.77;6.47;;;11.90;99.90;;;;;;5025093;28;20590;-90
2021/06/22 07:20:55;;;;;;;10.20;5.95;;;12.00;99.90;;;;;;5026680;28;20047;-92
2021/06/22 07:23:21;;;;;;;14.38;6.20;;;12.00;99.90;;;;;;5016838;28;20033;-91
2021/06/22 07:25:47;;;;;;;12.52;7.13;;;12.10;99.90;;;;;;5024155;28;20033;-91
2021/06/22 07:30:38;;;;;;;10.80;5.32;;;12.20;99.90;;;;;;4987267;23;20050;-92
2021/06/22 07:33:04;;;;;;;10.65;5.15;;;12.30;99.90;;;;;;4997163;28;20042;-92
2021/06/22 07:35:32;;;;;;;12.70;5.35;;;12.40;99.90;;;;;;4997731;28;20073;-90
2021/06/22 07:38:02;;;;;;;12.05;5.13;;;12.50;99.90;;;;;;4996091;28;20046;-91
2021/06/22 07:43:42;;;;;;;11.20;5.80;;;12.80;99.90;;;;;;5189146;23;20057;-95
2021/06/22 07:46:10;;;;;;;10.95;6.05;;;12.90;99.90;;;;;;5011361;28;20102;-96
2021/06/22 07:48:36;;;;;;;13.52;5.85;;;13.10;99.90;;;;;;4982590;28;20376;-94
2021/06/22 07:51:04;;;;;;;11.43;5.72;;;13.20;99.90;;;;;;4982761;28;20085;-96
2021/06/22 07:53:35;;;;;;;11.68;5.80;;;13.20;99.90;;;;;;4989673;28;20061;-95
2021/06/22 07:56:00;;;;;;;11.30;6.57;;;13.30;99.90;;;;;;4968797;28;20053;-94
2021/06/22 07:58:26;;;;;;;13.25;6.28;;;13.30;99.90;;;;;;4997577;28;20031;-96
2021/06/22 08:00:54;;;;;;;12.15;5.90;;;13.30;99.90;;;;;;4981746;28;20033;-94
2021/06/22 08:03:23;;;;;;;14.30;6.18;;;13.30;99.90;;;;;;4973718;28;20031;-96
2021/06/22 08:05:51;;;;;;;14.82;6.20;;;13.30;99.90;;;;;;4992157;28;20469;-95
2021/06/22 08:08:22;;;;;;;12.15;6.20;;;13.20;99.90;;;;;;4993235;28;20042;-96
2021/06/22 08:10:51;;;;;;;9.00;5.82;;;13.20;99.90;;;;;;5005510;28;20088;-95
2021/06/22 08:13:18;;;;;;;10.35;5.25;;;13.20;99.90;;;;;;4973507;28;20042;-95
2021/06/22 08:15:47;;;;;;;13.50;6.25;;;13.20;99.90;;;;;;4982785;28;20113;-95
2021/06/22 08:18:16;;;;;;;11.15;6.13;;;13.20;99.90;;;;;;4993425;28;20038;-96
2021/06/22 08:20:45;;;;;;;9.20;4.50;;;13.20;99.90;;;;;;4995151;28;20026;-95
2021/06/22 08:23:14;;;;;;;13.82;4.65;;;13.10;99.90;;;;;;4996117;28;20471;-95
2021/06/22 08:25:40;;;;;;;11.82;5.43;;;13.10;99.90;;;;;;5001321;28;20035;-95
2021/06/22 08:28:06;;;;;;;11.95;4.45;;;13.10;99.90;;;;;;5004134;28;20014;-96
2021/06/22 08:30:35;;;;;;;7.72;3.70;;;13.10;99.90;;;;;;5003777;28;20061;-95
2021/06/22 08:33:26;;;;;;;7.82;3.28;;;13.20;99.90;;;;;;5002718;28;20031;-95
2021/06/22 09:15:55;;;;;;;7.70;2.53;;;15.80;90.10;;;;;;6046692;23;21153;-93
2021/06/22 09:18:25;;;;;;;10.55;2.97;;;15.90;89.70;;;;;;5048477;28;20065;-94
2021/06/22 09:20:51;;;;;;;12.15;3.17;;;16.00;89.10;;;;;;5041370;28;20021;-94
2021/06/22 09:23:25;;;;;;;6.75;3.30;;;16.00;88.50;;;;;;5057711;28;20047;-94
2021/06/22 09:25:55;;;;;;;9.05;3.25;;;16.00;87.70;;;;;;5062799;23;20057;-94
2021/06/22 09:28:26;;;;;;;11.93;4.22;;;16.00;87.50;;;;;;5020206;28;20018;-94
2021/06/22 09:31:00;;;;;;;9.13;3.88;;;16.00;87.40;;;;;;5026168;28;20056;-94
2021/06/22 09:33:42;;;;;;;8.82;3.70;;;15.90;87.20;;;;;;5054011;28;20025;-93
2021/06/22 09:36:14;;;;;;;10.90;4.05;;;15.80;87.40;;;;;;5052574;28;20093;-94
2021/06/22 09:38:43;;;;;;;9.23;3.67;;;15.80;87.50;;;;;;5003305;28;20094;-93
2021/06/22 09:41:18;;;;;;;10.00;3.97;;;16.00;87.50;;;;;;4999302;28;20030;-96
2021/06/22 09:43:48;;;;;;;10.77;3.72;;;16.10;87.20;;;;;;5020598;28;20033;-94
2021/06/22 09:46:15;;;;;;;5.47;2.63;;;16.30;86.10;;;;;;5010327;28;20057;-94
2021/06/22 09:48:54;;;;;;;6.70;3.03;;;16.50;84.30;;;;;;5017245;28;20120;-95
2021/06/22 09:51:34;;;;;;;7.32;2.72;;;16.50;82.10;;;;;;5014914;28;20089;-96
2021/06/22 09:54:17;;;;;;;5.47;2.33;;;16.80;80.90;;;;;;5013092;28;20487;-95
2021/06/22 09:56:53;;;;;;;4.82;2.25;;;17.00;79.60;;;;;;5012717;28;20040;-94
2021/06/22 09:59:23;;;;;;;6.45;3.08;;;17.20;78.00;;;;;;5017601;28;20029;-96
2021/06/22 10:01:49;;;;;;;4.65;2.83;;;17.50;77.40;;;;;;5019413;28;20029;-95
2021/06/22 10:04:27;;;;;;;5.38;2.70;;;17.80;76.10;;;;;;5031376;28;20030;-94
2021/06/22 10:07:08;;;;;;;7.57;2.90;;;18.00;74.70;;;;;;5029512;28;20045;-95
2021/06/22 10:09:34;;;;;;;7.35;3.15;;;18.20;73.30;;;;;;5029931;28;20033;-94
2021/06/22 10:12:06;;;;;;;5.20;2.38;;;18.30;72.20;;;;;;5032315;28;20039;-95
2021/06/22 10:15:37;;;;;;;6.13;3.00;;;18.30;71.70;;;;;;5036933;28;20040;-95
2021/06/22 10:21:06;;;;;;;3.20;2.03;;;18.20;71.70;;;;;;5029239;28;20045;-96
2021/06/22 10:23:36;;;;;;;5.32;2.78;;;18.40;71.20;;;;;;5022984;28;20037;-94
2021/06/22 10:26:10;;;;;;;4.68;2.83;;;18.50;70.70;;;;;;5039446;28;20033;-96
2021/06/22 10:29:09;;;;;;;2.95;2.63;;;18.70;70.20;;;;;;5007067;28;20042;-95
2021/06/22 10:32:01;;;;;;;6.68;2.78;;;18.60;68.60;;;;;;5055790;28;20041;-95
2021/06/22 10:34:37;;;;;;;8.07;3.00;;;18.50;68.50;;;;;;5026413;28;20133;-95
2021/06/22 10:37:42;;;;;;;6.72;2.63;;;18.50;68.70;;;;;;5037163;28;20017;-95
2021/06/22 10:40:53;;;;;;;6.45;3.10;;;18.60;68.00;;;;;;5049647;28;20097;-95
2021/06/22 10:43:54;;;;;;;5.13;2.42;;;18.70;67.90;;;;;;5038010;28;20031;-94
2021/06/22 10:46:25;;;;;;;7.72;2.83;;;18.90;67.50;;;;;;4956615;29;20036;-96
2021/06/22 10:49:22;;;;;;;4.57;2.50;;;19.00;66.50;;;;;;4943885;29;20032;-95
2021/06/22 10:51:51;;;;;;;4.30;2.63;;;19.10;65.90;;;;;;4941878;29;20030;-96
2021/06/22 10:54:55;;;;;;;5.07;2.78;;;19.30;65.60;;;;;;4935846;29;20049;-96
2021/06/22 16:59:58;;;;;;;11.30;4.05;;;22.90;49.20;;;;;;5027190;28;20038;-94
2021/06/22 17:02:26;;;;;;;6.25;3.97;;;22.90;49.50;;;;;;5012468;28;20050;-94
2021/06/22 17:04:52;;;;;;;7.15;3.63;;;22.70;49.30;;;;;;4990981;28;20029;-95
2021/06/22 17:07:17;;;;;;;7.72;4.05;;;22.60;49.80;;;;;;4978375;28;20047;-94
2021/06/22 17:09:45;;;;;;;6.30;4.00;;;22.70;50.10;;;;;;5022797;28;20046;-94
2021/06/22 17:12:12;;;;;;;5.40;3.92;;;22.70;49.90;;;;;;5016780;28;20098;-94
2021/06/22 17:14:37;;;;;;;7.53;4.30;;;22.80;49.70;;;;;;5009370;28;20026;-94
2021/06/22 17:17:03;;;;;;;5.60;3.80;;;22.80;49.60;;;;;;5021811;28;20098;-94
2021/06/22 17:19:29;;;;;;;4.45;3.60;;;22.70;49.80;;;;;;5009401;28;20021;-93
2021/06/22 17:21:57;;;;;;;4.28;3.20;;;22.70;50.20;;;;;;5014578;28;20022;-93
2021/06/22 17:24:23;;;;;;;7.25;3.83;;;22.70;50.50;;;;;;4993674;28;20026;-93
2021/06/22 17:26:49;;;;;;;8.57;4.20;;;22.60;50.80;;;;;;4987084;28;20101;-92
2021/06/22 17:29:16;;;;;;;6.97;3.80;;;22.60;50.80;;;;;;4988205;28;20029;-93
2021/06/22 17:31:41;;;;;;;7.65;3.90;;;22.40;50.60;;;;;;4994580;28;20098;-93
2021/06/22 17:34:08;;;;;;;6.30;4.40;;;22.30;50.80;;;;;;5014165;28;20053;-93
2021/06/22 17:36:36;;;;;;;6.93;3.65;;;22.20;51.00;;;;;;4975103;28;20034;-94
2021/06/22 17:39:02;;;;;;;11.45;5.38;;;22.10;51.10;;;;;;4979099;28;20092;-94
2021/06/22 17:41:29;;;;;;;7.88;4.32;;;22.00;51.20;;;;;;4990646;28;20022;-93
2021/06/22 17:43:56;;;;;;;8.88;4.57;;;21.80;51.00;;;;;;4995599;28;20046;-93
2021/06/22 17:46:22;;;;;;;6.13;3.83;;;21.60;51.20;;;;;;4996157;28;20117;-94
2021/06/22 17:48:48;;;;;;;7.70;4.13;;;21.60;51.50;;;;;;4998588;28;20041;-94
2021/06/22 17:51:13;;;;;;;6.15;3.67;;;21.50;51.60;;;;;;4987822;28;20038;-94
2021/06/22 17:53:45;;;;;;;10.82;4.78;;;21.50;51.90;;;;;;4993956;28;20041;-94
2021/06/22 17:56:12;;;;;;;8.88;4.10;;;21.50;51.90;;;;;;4993467;28;20053;-93
2021/06/22 17:58:39;;;;;;;6.40;3.83;;;21.50;52.20;;;;;;5002948;28;20046;-92
2021/06/22 18:01:05;;;;;;;4.80;3.60;;;21.40;52.30;;;;;;5013365;28;20495;-94
2021/06/22 18:03:31;;;;;;;9.68;4.15;;;21.40;52.60;;;;;;5019751;28;20072;-94
2021/06/22 18:05:57;;;;;;;7.43;3.22;;;21.40;52.80;;;;;;5019759;28;20034;-93
2021/06/22 18:08:38;;;;;;;4.72;3.38;;;21.40;53.30;;;;;;5026130;28;20029;-95
2021/06/22 18:11:07;;;;;;;10.07;4.30;;;21.40;53.80;;;;;;5022053;28;20026;-95
2021/06/22 18:13:45;;;;;;;4.63;3.90;;;21.40;53.60;;;;;;5008773;28;20030;-91
2021/06/22 18:16:11;;;;;;;5.10;3.80;;;21.30;53.70;;;;;;4983554;28;20026;-92
2021/06/22 18:18:38;;;;;;;5.85;4.03;;;21.30;54.00;;;;;;4983496;28;20030;-92
2021/06/22 18:21:03;;;;;;;7.50;4.40;;;21.30;54.30;;;;;;4984052;28;20049;-93
2021/06/22 18:23:29;;;;;;;6.07;4.30;;;21.30;54.50;;;;;;4985556;28;20038;-95
2021/06/22 18:25:55;;;;;;;8.30;4.13;;;21.20;54.20;;;;;;4985534;28;20030;-91
2021/06/22 18:28:21;;;;;;;6.50;4.40;;;21.10;54.10;;;;;;4988929;28;20030;-91
2021/06/22 18:30:49;;;;;;;8.50;4.05;;;21.00;54.50;;;;;;4990172;28;20026;-90
2021/06/22 18:33:16;;;;;;;7.60;4.03;;;21.00;54.80;;;;;;4992303;28;20025;-91
2021/06/22 18:35:42;;;;;;;7.07;4.43;;;20.90;55.20;;;;;;4996766;28;20031;-91
2021/06/22 18:38:08;;;;;;;9.13;4.25;;;20.80;55.30;;;;;;4990017;28;20038;-91
2021/06/22 18:40:38;;;;;;;7.25;4.03;;;20.70;55.70;;;;;;4984881;28;20030;-91
2021/06/22 18:43:06;;;;;;;10.43;3.78;;;20.70;56.20;;;;;;4995083;28;20022;-92
2021/06/22 18:45:33;;;;;;;6.45;4.20;;;20.60;56.60;;;;;;4989501;28;20028;-91
2021/06/22 18:48:04;;;;;;;9.10;3.70;;;20.60;56.80;;;;;;4987275;28;20031;-92
2021/06/22 18:50:31;;;;;;;5.75;3.53;;;20.60;57.10;;;;;;4996958;28;20022;-93
2021/06/22 18:52:56;;;;;;;8.35;3.88;;;20.50;57.20;;;;;;4989073;28;20030;-91
2021/06/22 18:55:23;;;;;;;5.60;4.07;;;20.50;57.50;;;;;;4991949;28;20022;-91
2021/06/22 18:57:50;;;;;;;8.68;4.20;;;20.40;57.70;;;;;;5013704;28;20403;-90
2021/06/22 19:00:21;;;;;;;5.65;3.58;;;20.40;57.80;;;;;;4988991;28;20025;-90
2021/06/22 19:02:47;;;;;;;;;;;20.40;57.80;;;;;;4992127;28;20037;-90
2021/06/22 19:05:16;;;;;;;9.07;3.80;;;20.30;57.80;;;;;;4988261;28;19987;-91
2021/06/22 19:07:42;;;;;;;8.02;3.53;;;20.30;57.80;;;;;;4995637;28;20049;-91
